sensor_id;sensor_type;location;lat;lon;timestamp;P1;durP1;ratioP1;P2;durP2;ratioP2
21589;SDS011;10957;50.968;6.828;2023-04-25T00:04:51;4.03;;;3.83;;
21589;SDS011;10957;50.968;6.828;2023-04-25T00:09:52;3.80;;;3.70;;
21589;SDS011;10957;50.968;6.828;2023-04-25T00:14:54;4.35;;;4.13;;
21589;SDS011;10957;50.968;6.828;2023-04-25T00:19:57;3.70;;;3.60;;
21589;SDS011;10957;50.968;6.828;2023-04-25T00:24:59;4.05;;;3.85;;
21589;SDS011;10957;50.968;6.828;2023-04-25T00:30:00;3.67;;;3.58;;
21589;SDS011;10957;50.968;6.828;2023-04-25T00:35:02;4.55;;;4.35;;
21589;SDS011;10957;50.968;6.828;2023-04-25T00:40:04;3.80;;;3.70;;
21589;SDS011;10957;50.968;6.828;2023-04-25T00:45:07;3.58;;;3.47;;
21589;SDS011;10957;50.968;6.828;2023-04-25T00:50:13;4.10;;;3.90;;
21589;SDS011;10957;50.968;6.828;2023-04-25T00:55:14;4.32;;;4.13;;
21589;SDS011;10957;50.968;6.828;2023-04-25T01:00:16;3.92;;;3.83;;
21589;SDS011;10957;50.968;6.828;2023-04-25T01:05:18;3.97;;;3.83;;
21589;SDS011;10957;50.968;6.828;2023-04-25T01:10:20;4.13;;;3.92;;
21589;SDS011;10957;50.968;6.828;2023-04-25T01:15:21;4.18;;;3.97;;
21589;SDS011;10957;50.968;6.828;2023-04-25T01:20:22;4.07;;;3.88;;
21589;SDS011;10957;50.968;6.828;2023-04-25T01:25:25;4.32;;;4.13;;
21589;SDS011;10957;50.968;6.828;2023-04-25T01:30:27;4.65;;;4.45;;
21589;SDS011;10957;50.968;6.828;2023-04-25T01:35:29;4.75;;;4.50;;
21589;SDS011;10957;50.968;6.828;2023-04-25T01:40:32;3.90;;;3.80;;
21589;SDS011;10957;50.968;6.828;2023-04-25T01:45:35;4.20;;;4.00;;
21589;SDS011;10957;50.968;6.828;2023-04-25T01:50:37;4.22;;;4.03;;
21589;SDS011;10957;50.968;6.828;2023-04-25T01:55:40;4.13;;;3.92;;
21589;SDS011;10957;50.968;6.828;2023-04-25T02:00:46;4.40;;;4.20;;
21589;SDS011;10957;50.968;6.828;2023-04-25T02:05:47;5.57;;;4.97;;
21589;SDS011;10957;50.968;6.828;2023-04-25T02:10:48;3.85;;;3.75;;
21589;SDS011;10957;50.968;6.828;2023-04-25T02:15:53;4.90;;;4.70;;
21589;SDS011;10957;50.968;6.828;2023-04-25T02:20:55;3.80;;;3.70;;
21589;SDS011;10957;50.968;6.828;2023-04-25T02:25:56;4.10;;;3.90;;
21589;SDS011;10957;50.968;6.828;2023-04-25T02:30:58;3.90;;;3.80;;
21589;SDS011;10957;50.968;6.828;2023-04-25T02:35:59;4.10;;;3.90;;
21589;SDS011;10957;50.968;6.828;2023-04-25T02:41:00;4.10;;;3.90;;
21589;SDS011;10957;50.968;6.828;2023-04-25T02:46:01;4.00;;;3.83;;
21589;SDS011;10957;50.968;6.828;2023-04-25T02:51:03;3.72;;;3.63;;
21589;SDS011;10957;50.968;6.828;2023-04-25T02:56:04;3.75;;;3.65;;
21589;SDS011;10957;50.968;6.828;2023-04-25T03:01:06;4.85;;;4.65;;
21589;SDS011;10957;50.968;6.828;2023-04-25T03:06:07;4.10;;;3.90;;
21589;SDS011;10957;50.968;6.828;2023-04-25T03:11:08;4.35;;;4.00;;
21589;SDS011;10957;50.968;6.828;2023-04-25T03:16:10;4.25;;;4.05;;
21589;SDS011;10957;50.968;6.828;2023-04-25T03:21:11;3.90;;;3.80;;
21589;SDS011;10957;50.968;6.828;2023-04-25T03:26:12;4.13;;;3.92;;
21589;SDS011;10957;50.968;6.828;2023-04-25T03:31:14;4.50;;;4.30;;
21589;SDS011;10957;50.968;6.828;2023-04-25T03:36:15;4.10;;;3.90;;
21589;SDS011;10957;50.968;6.828;2023-04-25T03:41:17;3.95;;;3.80;;
21589;SDS011;10957;50.968;6.828;2023-04-25T03:46:30;6.00;;;5.55;;
21589;SDS011;10957;50.968;6.828;2023-04-25T03:51:32;4.45;;;4.25;;
21589;SDS011;10957;50.968;6.828;2023-04-25T03:56:33;4.00;;;3.85;;
21589;SDS011;10957;50.968;6.828;2023-04-25T04:01:43;4.15;;;3.95;;
21589;SDS011;10957;50.968;6.828;2023-04-25T04:06:45;3.80;;;3.67;;
21589;SDS011;10957;50.968;6.828;2023-04-25T04:11:52;3.65;;;3.55;;
21589;SDS011;10957;50.968;6.828;2023-04-25T04:16:54;4.50;;;4.30;;
21589;SDS011;10957;50.968;6.828;2023-04-25T04:21:57;3.53;;;3.42;;
21589;SDS011;10957;50.968;6.828;2023-04-25T04:26:58;3.70;;;3.60;;
21589;SDS011;10957;50.968;6.828;2023-04-25T04:32:18;3.50;;;3.40;;
21589;SDS011;10957;50.968;6.828;2023-04-25T04:37:20;3.63;;;3.53;;
21589;SDS011;10957;50.968;6.828;2023-04-25T04:42:21;3.88;;;3.67;;
21589;SDS011;10957;50.968;6.828;2023-04-25T04:47:45;3.30;;;3.20;;
21589;SDS011;10957;50.968;6.828;2023-04-25T04:53:13;3.50;;;3.40;;
21589;SDS011;10957;50.968;6.828;2023-04-25T04:58:29;3.58;;;3.47;;
21589;SDS011;10957;50.968;6.828;2023-04-25T05:03:53;3.40;;;3.30;;
21589;SDS011;10957;50.968;6.828;2023-04-25T05:09:17;3.08;;;2.97;;
21589;SDS011;10957;50.968;6.828;2023-04-25T05:14:34;3.25;;;3.15;;
21589;SDS011;10957;50.968;6.828;2023-04-25T05:19:46;6.80;;;4.45;;
21589;SDS011;10957;50.968;6.828;2023-04-25T05:25:06;3.28;;;3.17;;
21589;SDS011;10957;50.968;6.828;2023-04-25T05:30:30;3.28;;;3.17;;
21589;SDS011;10957;50.968;6.828;2023-04-25T05:35:38;4.15;;;3.92;;
21589;SDS011;10957;50.968;6.828;2023-04-25T05:40:40;3.15;;;3.05;;
21589;SDS011;10957;50.968;6.828;2023-04-25T05:46:05;3.20;;;3.10;;
21589;SDS011;10957;50.968;6.828;2023-04-25T05:51:19;4.38;;;3.85;;
21589;SDS011;10957;50.968;6.828;2023-04-25T05:56:45;3.25;;;3.15;;
21589;SDS011;10957;50.968;6.828;2023-04-25T06:01:46;3.20;;;3.10;;
21589;SDS011;10957;50.968;6.828;2023-04-25T06:06:48;3.00;;;2.90;;
21589;SDS011;10957;50.968;6.828;2023-04-25T06:11:49;4.82;;;4.50;;
21589;SDS011;10957;50.968;6.828;2023-04-25T06:16:51;3.03;;;2.92;;
21589;SDS011;10957;50.968;6.828;2023-04-25T06:21:52;3.65;;;3.50;;
21589;SDS011;10957;50.968;6.828;2023-04-25T06:26:54;3.90;;;3.67;;
21589;SDS011;10957;50.968;6.828;2023-04-25T06:31:56;3.13;;;3.03;;
21589;SDS011;10957;50.968;6.828;2023-04-25T06:36:58;3.00;;;2.90;;
21589;SDS011;10957;50.968;6.828;2023-04-25T06:42:00;2.70;;;2.60;;
21589;SDS011;10957;50.968;6.828;2023-04-25T06:47:19;2.80;;;2.70;;
21589;SDS011;10957;50.968;6.828;2023-04-25T06:52:22;2.83;;;2.72;;
21589;SDS011;10957;50.968;6.828;2023-04-25T06:57:26;3.00;;;2.90;;
21589;SDS011;10957;50.968;6.828;2023-04-25T07:02:30;2.92;;;2.83;;
21589;SDS011;10957;50.968;6.828;2023-04-25T07:07:32;6.88;;;3.78;;
21589;SDS011;10957;50.968;6.828;2023-04-25T07:12:33;2.60;;;2.50;;
21589;SDS011;10957;50.968;6.828;2023-04-25T07:17:35;2.63;;;2.53;;
21589;SDS011;10957;50.968;6.828;2023-04-25T07:22:36;2.75;;;2.65;;
21589;SDS011;10957;50.968;6.828;2023-04-25T07:27:38;2.45;;;2.35;;
21589;SDS011;10957;50.968;6.828;2023-04-25T07:32:48;2.50;;;2.40;;
21589;SDS011;10957;50.968;6.828;2023-04-25T07:37:50;2.20;;;2.10;;
21589;SDS011;10957;50.968;6.828;2023-04-25T07:42:54;2.90;;;2.80;;
21589;SDS011;10957;50.968;6.828;2023-04-25T07:48:08;2.60;;;2.50;;
21589;SDS011;10957;50.968;6.828;2023-04-25T07:53:12;2.35;;;2.25;;
21589;SDS011;10957;50.968;6.828;2023-04-25T07:58:21;2.50;;;2.40;;
21589;SDS011;10957;50.968;6.828;2023-04-25T08:03:24;3.08;;;2.88;;
21589;SDS011;10957;50.968;6.828;2023-04-25T08:08:27;2.92;;;2.83;;
21589;SDS011;10957;50.968;6.828;2023-04-25T08:13:29;2.80;;;2.70;;
21589;SDS011;10957;50.968;6.828;2023-04-25T08:18:30;3.08;;;2.97;;
21589;SDS011;10957;50.968;6.828;2023-04-25T08:23:32;3.53;;;3.42;;
21589;SDS011;10957;50.968;6.828;2023-04-25T08:28:37;3.50;;;3.33;;
21589;SDS011;10957;50.968;6.828;2023-04-25T08:33:40;3.50;;;3.30;;
21589;SDS011;10957;50.968;6.828;2023-04-25T08:39:13;2.95;;;2.85;;
21589;SDS011;10957;50.968;6.828;2023-04-25T08:44:24;3.20;;;3.10;;
21589;SDS011;10957;50.968;6.828;2023-04-25T08:49:25;3.20;;;3.10;;
21589;SDS011;10957;50.968;6.828;2023-04-25T08:54:27;3.40;;;3.30;;
21589;SDS011;10957;50.968;6.828;2023-04-25T08:59:30;3.10;;;3.00;;
21589;SDS011;10957;50.968;6.828;2023-04-25T09:04:32;3.45;;;3.30;;
21589;SDS011;10957;50.968;6.828;2023-04-25T09:09:33;3.03;;;2.92;;
21589;SDS011;10957;50.968;6.828;2023-04-25T09:14:35;3.08;;;2.97;;
21589;SDS011;10957;50.968;6.828;2023-04-25T09:19:40;3.42;;;3.28;;
21589;SDS011;10957;50.968;6.828;2023-04-25T09:24:50;3.20;;;3.10;;
21589;SDS011;10957;50.968;6.828;2023-04-25T09:29:56;3.00;;;2.90;;
21589;SDS011;10957;50.968;6.828;2023-04-25T09:35:02;3.00;;;2.90;;
21589;SDS011;10957;50.968;6.828;2023-04-25T09:40:06;3.22;;;3.13;;
21589;SDS011;10957;50.968;6.828;2023-04-25T09:45:14;2.90;;;2.80;;
21589;SDS011;10957;50.968;6.828;2023-04-25T09:50:17;2.90;;;2.80;;
21589;SDS011;10957;50.968;6.828;2023-04-25T09:55:24;2.83;;;2.72;;
21589;SDS011;10957;50.968;6.828;2023-04-25T10:00:26;2.80;;;2.70;;
21589;SDS011;10957;50.968;6.828;2023-04-25T10:05:28;2.80;;;2.70;;
21589;SDS011;10957;50.968;6.828;2023-04-25T10:10:32;3.65;;;3.55;;
21589;SDS011;10957;50.968;6.828;2023-04-25T10:15:36;11.15;;;3.80;;
21589;SDS011;10957;50.968;6.828;2023-04-25T10:20:38;3.30;;;3.20;;
21589;SDS011;10957;50.968;6.828;2023-04-25T10:25:40;2.80;;;2.70;;
21589;SDS011;10957;50.968;6.828;2023-04-25T10:30:59;2.70;;;2.60;;
21589;SDS011;10957;50.968;6.828;2023-04-25T10:36:11;4.70;;;4.25;;
21589;SDS011;10957;50.968;6.828;2023-04-25T10:41:13;3.10;;;3.00;;
21589;SDS011;10957;50.968;6.828;2023-04-25T10:46:24;2.80;;;2.70;;
21589;SDS011;10957;50.968;6.828;2023-04-25T11:06:53;2.72;;;2.63;;
21589;SDS011;10957;50.968;6.828;2023-04-25T11:12:07;2.70;;;2.60;;
21589;SDS011;10957;50.968;6.828;2023-04-25T11:17:10;9.20;;;5.53;;
21589;SDS011;10957;50.968;6.828;2023-04-25T11:22:12;2.70;;;2.60;;
21589;SDS011;10957;50.968;6.828;2023-04-25T11:27:13;4.22;;;3.08;;
21589;SDS011;10957;50.968;6.828;2023-04-25T11:32:15;2.60;;;2.50;;
21589;SDS011;10957;50.968;6.828;2023-04-25T11:37:18;4.20;;;3.90;;
21589;SDS011;10957;50.968;6.828;2023-04-25T11:42:19;3.10;;;3.00;;
21589;SDS011;10957;50.968;6.828;2023-04-25T11:47:26;2.80;;;2.70;;
21589;SDS011;10957;50.968;6.828;2023-04-25T11:52:39;2.70;;;2.60;;
21589;SDS011;10957;50.968;6.828;2023-04-25T11:57:43;2.80;;;2.70;;
21589;SDS011;10957;50.968;6.828;2023-04-25T12:02:47;2.85;;;2.75;;
21589;SDS011;10957;50.968;6.828;2023-04-25T12:07:52;3.00;;;2.90;;
21589;SDS011;10957;50.968;6.828;2023-04-25T12:12:53;3.00;;;2.90;;
21589;SDS011;10957;50.968;6.828;2023-04-25T12:17:55;3.17;;;3.03;;
21589;SDS011;10957;50.968;6.828;2023-04-25T12:22:57;3.25;;;3.15;;
21589;SDS011;10957;50.968;6.828;2023-04-25T12:28:11;3.10;;;3.00;;
21589;SDS011;10957;50.968;6.828;2023-04-25T12:33:26;3.10;;;3.00;;
21589;SDS011;10957;50.968;6.828;2023-04-25T12:38:33;3.67;;;3.47;;
21589;SDS011;10957;50.968;6.828;2023-04-25T12:43:37;3.03;;;2.92;;
21589;SDS011;10957;50.968;6.828;2023-04-25T12:48:38;3.20;;;3.10;;
21589;SDS011;10957;50.968;6.828;2023-04-25T12:53:40;2.90;;;2.80;;
21589;SDS011;10957;50.968;6.828;2023-04-25T12:58:42;3.03;;;2.83;;
21589;SDS011;10957;50.968;6.828;2023-04-25T13:03:44;2.88;;;2.78;;
21589;SDS011;10957;50.968;6.828;2023-04-25T13:08:46;3.08;;;2.90;;
21589;SDS011;10957;50.968;6.828;2023-04-25T13:13:47;3.60;;;3.40;;
21589;SDS011;10957;50.968;6.828;2023-04-25T13:18:49;3.00;;;2.90;;
21589;SDS011;10957;50.968;6.828;2023-04-25T13:23:50;3.00;;;2.90;;
21589;SDS011;10957;50.968;6.828;2023-04-25T13:28:51;2.90;;;2.80;;
21589;SDS011;10957;50.968;6.828;2023-04-25T13:33:53;3.28;;;3.13;;
21589;SDS011;10957;50.968;6.828;2023-04-25T13:38:54;2.90;;;2.80;;
21589;SDS011;10957;50.968;6.828;2023-04-25T13:43:55;3.78;;;3.53;;
21589;SDS011;10957;50.968;6.828;2023-04-25T13:48:57;2.80;;;2.70;;
21589;SDS011;10957;50.968;6.828;2023-04-25T13:53:58;3.20;;;3.10;;
21589;SDS011;10957;50.968;6.828;2023-04-25T13:58:59;3.33;;;3.22;;
21589;SDS011;10957;50.968;6.828;2023-04-25T14:04:01;3.10;;;3.00;;
21589;SDS011;10957;50.968;6.828;2023-04-25T14:09:04;3.13;;;3.03;;
21589;SDS011;10957;50.968;6.828;2023-04-25T14:14:07;3.00;;;2.90;;
21589;SDS011;10957;50.968;6.828;2023-04-25T14:19:08;3.42;;;3.33;;
21589;SDS011;10957;50.968;6.828;2023-04-25T14:24:09;2.90;;;2.80;;
21589;SDS011;10957;50.968;6.828;2023-04-25T14:29:14;2.90;;;2.80;;
21589;SDS011;10957;50.968;6.828;2023-04-25T14:34:15;3.33;;;3.13;;
21589;SDS011;10957;50.968;6.828;2023-04-25T14:39:16;3.00;;;2.90;;
21589;SDS011;10957;50.968;6.828;2023-04-25T14:44:17;3.30;;;3.20;;
21589;SDS011;10957;50.968;6.828;2023-04-25T14:49:19;2.95;;;2.85;;
21589;SDS011;10957;50.968;6.828;2023-04-25T14:54:20;3.20;;;3.10;;
21589;SDS011;10957;50.968;6.828;2023-04-25T14:59:21;3.25;;;3.15;;
21589;SDS011;10957;50.968;6.828;2023-04-25T15:04:23;3.47;;;3.22;;
21589;SDS011;10957;50.968;6.828;2023-04-25T15:09:24;4.32;;;4.00;;
21589;SDS011;10957;50.968;6.828;2023-04-25T15:14:25;3.40;;;3.30;;
21589;SDS011;10957;50.968;6.828;2023-04-25T15:19:27;3.20;;;3.10;;
21589;SDS011;10957;50.968;6.828;2023-04-25T15:24:29;3.40;;;3.30;;
21589;SDS011;10957;50.968;6.828;2023-04-25T15:29:30;3.50;;;3.40;;
21589;SDS011;10957;50.968;6.828;2023-04-25T15:34:32;3.10;;;3.00;;
21589;SDS011;10957;50.968;6.828;2023-04-25T15:39:33;3.10;;;3.00;;
21589;SDS011;10957;50.968;6.828;2023-04-25T15:44:35;3.40;;;3.30;;
21589;SDS011;10957;50.968;6.828;2023-04-25T15:49:36;3.10;;;3.00;;
21589;SDS011;10957;50.968;6.828;2023-04-25T15:54:37;3.20;;;3.10;;
21589;SDS011;10957;50.968;6.828;2023-04-25T15:59:38;2.88;;;2.78;;
21589;SDS011;10957;50.968;6.828;2023-04-25T16:04:40;3.05;;;2.90;;
21589;SDS011;10957;50.968;6.828;2023-04-25T16:09:41;18.83;;;3.25;;
21589;SDS011;10957;50.968;6.828;2023-04-25T16:14:44;4.65;;;3.50;;
21589;SDS011;10957;50.968;6.828;2023-04-25T16:19:45;3.47;;;3.28;;
21589;SDS011;10957;50.968;6.828;2023-04-25T16:24:46;3.38;;;3.25;;
21589;SDS011;10957;50.968;6.828;2023-04-25T16:29:48;2.80;;;2.70;;
21589;SDS011;10957;50.968;6.828;2023-04-25T16:34:51;2.70;;;2.60;;
21589;SDS011;10957;50.968;6.828;2023-04-25T16:39:52;2.85;;;2.75;;
21589;SDS011;10957;50.968;6.828;2023-04-25T16:44:53;2.80;;;2.70;;
21589;SDS011;10957;50.968;6.828;2023-04-25T16:49:55;2.90;;;2.80;;
21589;SDS011;10957;50.968;6.828;2023-04-25T16:54:57;2.60;;;2.50;;
21589;SDS011;10957;50.968;6.828;2023-04-25T16:59:58;2.70;;;2.60;;
21589;SDS011;10957;50.968;6.828;2023-04-25T17:04:59;3.00;;;2.90;;
21589;SDS011;10957;50.968;6.828;2023-04-25T17:10:01;3.10;;;3.00;;
21589;SDS011;10957;50.968;6.828;2023-04-25T17:15:03;3.00;;;2.90;;
21589;SDS011;10957;50.968;6.828;2023-04-25T17:20:06;2.60;;;2.50;;
21589;SDS011;10957;50.968;6.828;2023-04-25T17:25:09;2.60;;;2.50;;
21589;SDS011;10957;50.968;6.828;2023-04-25T17:30:11;2.67;;;2.58;;
21589;SDS011;10957;50.968;6.828;2023-04-25T17:35:12;2.75;;;2.65;;
21589;SDS011;10957;50.968;6.828;2023-04-25T17:40:15;2.90;;;2.80;;
21589;SDS011;10957;50.968;6.828;2023-04-25T17:45:16;3.00;;;2.90;;
21589;SDS011;10957;50.968;6.828;2023-04-25T17:50:18;2.90;;;2.80;;
21589;SDS011;10957;50.968;6.828;2023-04-25T17:55:20;2.72;;;2.63;;
21589;SDS011;10957;50.968;6.828;2023-04-25T18:00:21;2.65;;;2.55;;
21589;SDS011;10957;50.968;6.828;2023-04-25T18:05:22;2.70;;;2.60;;
21589;SDS011;10957;50.968;6.828;2023-04-25T18:10:24;2.60;;;2.50;;
21589;SDS011;10957;50.968;6.828;2023-04-25T18:15:26;2.40;;;2.30;;
21589;SDS011;10957;50.968;6.828;2023-04-25T18:20:28;2.45;;;2.35;;
21589;SDS011;10957;50.968;6.828;2023-04-25T18:25:29;2.60;;;2.50;;
21589;SDS011;10957;50.968;6.828;2023-04-25T18:30:31;2.20;;;2.10;;
21589;SDS011;10957;50.968;6.828;2023-04-25T18:35:32;2.40;;;2.30;;
21589;SDS011;10957;50.968;6.828;2023-04-25T18:40:33;2.22;;;2.13;;
21589;SDS011;10957;50.968;6.828;2023-04-25T18:45:35;2.20;;;2.10;;
21589;SDS011;10957;50.968;6.828;2023-04-25T18:50:36;2.90;;;2.80;;
21589;SDS011;10957;50.968;6.828;2023-04-25T18:55:37;2.50;;;2.40;;
21589;SDS011;10957;50.968;6.828;2023-04-25T19:00:40;2.42;;;2.33;;
21589;SDS011;10957;50.968;6.828;2023-04-25T19:05:42;2.00;;;1.90;;
21589;SDS011;10957;50.968;6.828;2023-04-25T19:10:43;2.10;;;2.00;;
21589;SDS011;10957;50.968;6.828;2023-04-25T19:15:48;2.47;;;2.38;;
21589;SDS011;10957;50.968;6.828;2023-04-25T19:20:49;2.38;;;2.28;;
21589;SDS011;10957;50.968;6.828;2023-04-25T19:25:51;2.20;;;2.10;;
21589;SDS011;10957;50.968;6.828;2023-04-25T19:30:53;2.20;;;2.10;;
21589;SDS011;10957;50.968;6.828;2023-04-25T19:35:54;2.20;;;2.10;;
21589;SDS011;10957;50.968;6.828;2023-04-25T19:40:55;2.20;;;2.10;;
21589;SDS011;10957;50.968;6.828;2023-04-25T19:45:57;2.40;;;2.30;;
21589;SDS011;10957;50.968;6.828;2023-04-25T19:50:58;2.30;;;2.20;;
21589;SDS011;10957;50.968;6.828;2023-04-25T19:55:59;2.40;;;2.30;;
21589;SDS011;10957;50.968;6.828;2023-04-25T20:01:01;2.53;;;2.42;;
21589;SDS011;10957;50.968;6.828;2023-04-25T20:06:03;2.20;;;2.10;;
21589;SDS011;10957;50.968;6.828;2023-04-25T20:11:05;2.40;;;2.30;;
21589;SDS011;10957;50.968;6.828;2023-04-25T20:16:06;2.40;;;2.30;;
21589;SDS011;10957;50.968;6.828;2023-04-25T20:21:07;2.80;;;2.70;;
21589;SDS011;10957;50.968;6.828;2023-04-25T20:26:09;2.33;;;2.22;;
21589;SDS011;10957;50.968;6.828;2023-04-25T20:31:12;2.35;;;2.25;;
21589;SDS011;10957;50.968;6.828;2023-04-25T20:36:14;2.10;;;2.00;;
21589;SDS011;10957;50.968;6.828;2023-04-25T20:41:15;2.30;;;2.20;;
21589;SDS011;10957;50.968;6.828;2023-04-25T20:46:17;2.45;;;2.35;;
21589;SDS011;10957;50.968;6.828;2023-04-25T20:51:18;2.20;;;2.10;;
21589;SDS011;10957;50.968;6.828;2023-04-25T20:56:20;2.20;;;2.10;;
21589;SDS011;10957;50.968;6.828;2023-04-25T21:01:24;3.28;;;3.17;;
21589;SDS011;10957;50.968;6.828;2023-04-25T21:06:35;2.30;;;2.20;;
21589;SDS011;10957;50.968;6.828;2023-04-25T21:11:42;2.42;;;2.33;;
21589;SDS011;10957;50.968;6.828;2023-04-25T21:16:45;2.20;;;2.10;;
21589;SDS011;10957;50.968;6.828;2023-04-25T21:21:46;2.40;;;2.30;;
21589;SDS011;10957;50.968;6.828;2023-04-25T21:26:48;2.40;;;2.30;;
21589;SDS011;10957;50.968;6.828;2023-04-25T21:31:49;6.13;;;2.67;;
21589;SDS011;10957;50.968;6.828;2023-04-25T21:36:50;3.75;;;2.53;;
21589;SDS011;10957;50.968;6.828;2023-04-25T21:41:52;2.25;;;2.15;;
21589;SDS011;10957;50.968;6.828;2023-04-25T21:46:53;2.80;;;2.70;;
21589;SDS011;10957;50.968;6.828;2023-04-25T21:51:55;2.40;;;2.30;;
21589;SDS011;10957;50.968;6.828;2023-04-25T21:56:56;2.67;;;2.58;;
21589;SDS011;10957;50.968;6.828;2023-04-25T22:01:57;2.40;;;2.30;;
21589;SDS011;10957;50.968;6.828;2023-04-25T22:06:59;2.55;;;2.45;;
21589;SDS011;10957;50.968;6.828;2023-04-25T22:12:00;2.40;;;2.30;;
21589;SDS011;10957;50.968;6.828;2023-04-25T22:17:03;2.60;;;2.50;;
21589;SDS011;10957;50.968;6.828;2023-04-25T22:22:05;2.53;;;2.42;;
21589;SDS011;10957;50.968;6.828;2023-04-25T22:27:07;2.50;;;2.40;;
21589;SDS011;10957;50.968;6.828;2023-04-25T22:32:10;2.50;;;2.40;;
21589;SDS011;10957;50.968;6.828;2023-04-25T22:37:14;2.60;;;2.50;;
21589;SDS011;10957;50.968;6.828;2023-04-25T22:42:16;2.70;;;2.60;;
21589;SDS011;10957;50.968;6.828;2023-04-25T22:47:20;2.60;;;2.50;;
21589;SDS011;10957;50.968;6.828;2023-04-25T22:52:22;2.95;;;2.85;;
21589;SDS011;10957;50.968;6.828;2023-04-25T22:57:23;2.60;;;2.50;;
21589;SDS011;10957;50.968;6.828;2023-04-25T23:02:25;2.60;;;2.50;;
21589;SDS011;10957;50.968;6.828;2023-04-25T23:07:26;2.50;;;2.40;;
21589;SDS011;10957;50.968;6.828;2023-04-25T23:12:28;2.70;;;2.60;;
21589;SDS011;10957;50.968;6.828;2023-04-25T23:17:30;2.50;;;2.40;;
21589;SDS011;10957;50.968;6.828;2023-04-25T23:22:33;3.45;;;3.25;;
21589;SDS011;10957;50.968;6.828;2023-04-25T23:27:34;2.60;;;2.50;;
21589;SDS011;10957;50.968;6.828;2023-04-25T23:32:37;2.85;;;2.75;;
21589;SDS011;10957;50.968;6.828;2023-04-25T23:37:38;2.70;;;2.60;;
21589;SDS011;10957;50.968;6.828;2023-04-25T23:42:40;2.60;;;2.50;;
21589;SDS011;10957;50.968;6.828;2023-04-25T23:47:41;2.70;;;2.60;;
21589;SDS011;10957;50.968;6.828;2023-04-25T23:52:43;2.83;;;2.72;;
21589;SDS011;10957;50.968;6.828;2023-04-25T23:57:44;2.50;;;2.40;;
